This is the latest recevied weather packets stored in our database for station/object N6RDS-8. If no packets are shown the sender has not sent any weather packets the latest 10 day(s).
| Time | Temp. | Humidity | Pressure | Rain* | Wind** | Luminosity | Snow |
|---|---|---|---|---|---|---|---|
| 1777604244 | 13.89° C | 92% | 1015.2 hPa | 1.78 mm | - | 0 W/m² | - |
| 1777603940 | 13.89° C | 91% | 1015.5 hPa | 3.56 mm | - | 0 W/m² | - |
| 1777603637 | 13.89° C | 91% | 1015.3 hPa | 1.78 mm | - | 0 W/m² | - |
| 1777603333 | 13.89° C | 92% | 1015.5 hPa | 0 mm | - | 0 W/m² | - |
| 1777603029 | 14.44° C | 92% | 1015 hPa | 0 mm | - | 0 W/m² | - |
| 1777602724 | 14.44° C | 92% | 1015.1 hPa | 1.27 mm | - | 0 W/m² | - |
| 1777602418 | 14.44° C | 92% | 1015.2 hPa | 4.32 mm | - | 0 W/m² | - |
| 1777602116 | 14.44° C | 92% | 1014.8 hPa | 7.87 mm | - | 0 W/m² | - |
| 1777601810 | 14.44° C | 91% | 1014.7 hPa | 8.89 mm | - | 0 W/m² | - |
| 1777601506 | 15° C | 91% | 1014.6 hPa | 4.32 mm | - | 0 W/m² | - |
| 1777601201 | 15° C | 90% | 1014.3 hPa | 1.78 mm | - | 0 W/m² | - |
| 1777600900 | 15° C | 92% | 1014.2 hPa | 6.6 mm | - | 0 W/m² | - |
| 1777600594 | 15° C | 91% | 1014.2 hPa | 6.6 mm | - | 0 W/m² | - |
| 1777600291 | 15° C | 90% | 1014.2 hPa | 1.78 mm | - | 0 W/m² | - |
| 1777599987 | 15° C | 89% | 1014.1 hPa | 0 mm | - | 1 W/m² | - |
| 1777599683 | 15° C | 87% | 1014 hPa | 1.27 mm | - | 2 W/m² | - |
| 1777599379 | 15° C | 85% | 1013.8 hPa | 1.27 mm | - | 2 W/m² | - |
| 1777599077 | 15° C | 85% | 1013.7 hPa | 1.78 mm | - | 3 W/m² | - |
| 1777598775 | 15.56° C | 85% | 1013.8 hPa | 1.78 mm | - | 4 W/m² | - |
| 1777598469 | 15.56° C | 82% | 1013.3 hPa | 1.27 mm | - | 4 W/m² | - |
| 1777598168 | 16.67° C | 78% | 1013.5 hPa | 1.27 mm | - | 6 W/m² | - |
| 1777597863 | 17.78° C | 69% | 1013.3 hPa | 0 mm | - | 7 W/m² | - |
| 1777597557 | 17.78° C | 67% | 1013.2 hPa | 0 mm | - | 8 W/m² | - |
| 1777597253 | 18.33° C | 64% | 1013.3 hPa | 0 mm | - | 9 W/m² | - |
| 1777596948 | 18.89° C | 62% | 1013.2 hPa | 0 mm | - | 11 W/m² | - |
* Rain latest hour (hover to see other rain measurements)
** Current wind speed in m/s (hover to see current wind gust speed)